createdAt,value
2019-03-27T00:00:26.553Z,6.09
2019-03-27T00:01:26.493Z,6.08
2019-03-27T00:02:26.478Z,6.12
2019-03-27T00:03:26.416Z,6.17
2019-03-27T00:04:26.370Z,6.06
2019-03-27T00:05:26.333Z,6.11
2019-03-27T00:06:26.283Z,6.04
2019-03-27T00:07:26.251Z,6.12
2019-03-27T00:08:26.241Z,6.17
2019-03-27T00:09:26.159Z,6.04
2019-03-27T00:10:26.132Z,5.96
2019-03-27T00:11:26.109Z,6.09
2019-03-27T00:12:26.044Z,6.06
2019-03-27T00:13:26.004Z,6.01
2019-03-27T00:14:26.028Z,6.06
2019-03-27T00:15:25.942Z,6.06
2019-03-27T00:16:25.896Z,6.03
2019-03-27T00:17:25.888Z,5.96
2019-03-27T00:18:25.819Z,5.94
2019-03-27T00:19:25.762Z,5.96
2019-03-27T00:20:25.735Z,5.94
2019-03-27T00:21:25.691Z,5.93
2019-03-27T00:22:25.682Z,5.99
2019-03-27T00:23:25.618Z,5.83
2019-03-27T00:24:25.573Z,5.99
2019-03-27T00:25:25.532Z,5.97
2019-03-27T00:26:25.515Z,6.06
2019-03-27T00:27:25.455Z,6.04
2019-03-27T00:28:25.427Z,6.01
2019-03-27T00:29:25.432Z,6.04
2019-03-27T00:30:25.325Z,6.03
2019-03-27T00:31:25.299Z,6.01
2019-03-27T00:32:25.248Z,6.00
2019-03-27T00:33:25.241Z,6.01
2019-03-27T00:34:25.189Z,5.93
2019-03-27T00:35:25.131Z,5.86
2019-03-27T00:36:25.099Z,6.00
2019-03-27T00:37:25.073Z,5.89
2019-03-27T00:38:25.023Z,5.85
2019-03-27T00:39:24.987Z,5.83
2019-03-27T00:40:24.935Z,5.97
2019-03-27T00:41:24.900Z,5.90
2019-03-27T00:42:24.870Z,5.90
2019-03-27T00:43:24.829Z,5.86
2019-03-27T00:44:24.800Z,5.82
2019-03-27T00:45:26.882Z,5.75
2019-03-27T00:46:24.707Z,5.78
2019-03-27T00:47:24.673Z,5.71
2019-03-27T00:48:24.652Z,5.67
2019-03-27T00:49:24.945Z,5.82
2019-03-27T00:50:24.539Z,5.74
2019-03-27T00:51:24.496Z,5.86
2019-03-27T00:52:24.466Z,5.78
2019-03-27T00:53:24.417Z,5.81
2019-03-27T00:54:24.386Z,5.90
2019-03-27T00:55:24.343Z,5.89
2019-03-27T00:56:24.304Z,5.91
2019-03-27T00:57:24.275Z,5.83
2019-03-27T00:58:24.226Z,5.81
2019-03-27T00:59:24.210Z,5.81
2019-03-27T01:00:24.157Z,5.85
2019-03-27T01:01:24.105Z,5.79
2019-03-27T01:02:24.073Z,5.74
2019-03-27T01:03:24.038Z,5.76
2019-03-27T01:04:23.994Z,5.78
2019-03-27T01:05:23.947Z,5.81
2019-03-27T01:06:23.953Z,5.71
2019-03-27T01:07:23.869Z,5.78
2019-03-27T01:08:23.854Z,5.71
2019-03-27T01:09:23.828Z,5.79
2019-03-27T01:10:23.761Z,5.78
2019-03-27T01:11:23.719Z,5.76
2019-03-27T01:12:23.674Z,5.72
2019-03-27T01:13:23.634Z,5.78
2019-03-27T01:14:23.591Z,5.71
2019-03-27T01:15:23.586Z,5.65
2019-03-27T01:16:23.529Z,5.68
2019-03-27T01:17:23.479Z,5.61
2019-03-27T01:18:23.455Z,5.57
2019-03-27T01:19:23.400Z,5.56
2019-03-27T01:20:23.360Z,5.58
2019-03-27T01:21:23.328Z,5.57
2019-03-27T01:22:23.277Z,5.56
2019-03-27T01:23:50.876Z,5.58
2019-03-27T01:24:23.212Z,5.61
2019-03-27T01:25:23.175Z,5.49
2019-03-27T01:26:23.136Z,5.51
2019-03-27T01:27:23.085Z,5.56
2019-03-27T01:28:23.051Z,5.51
2019-03-27T01:29:23.010Z,5.54
2019-03-27T01:30:22.956Z,5.61
2019-03-27T01:31:22.909Z,5.54
2019-03-27T01:32:22.881Z,5.53
2019-03-27T01:33:43.841Z,5.56
2019-03-27T01:34:22.867Z,5.58
2019-03-27T01:35:22.749Z,5.56
2019-03-27T01:36:22.724Z,5.56
2019-03-27T01:37:22.712Z,5.51
2019-03-27T01:38:22.644Z,5.46
2019-03-27T01:39:22.610Z,5.58
2019-03-27T01:40:22.568Z,5.58
2019-03-27T01:41:22.534Z,5.60
2019-03-27T01:42:22.517Z,5.58
2019-03-27T01:43:22.464Z,5.53
2019-03-27T01:44:22.403Z,5.56
2019-03-27T01:45:22.389Z,5.56
2019-03-27T01:46:22.315Z,5.56
2019-03-27T01:47:22.279Z,5.51
2019-03-27T01:48:22.262Z,5.46
2019-03-27T01:49:22.207Z,5.56
2019-03-27T01:50:22.177Z,5.56
2019-03-27T01:51:22.121Z,5.56
2019-03-27T01:52:22.091Z,5.56
2019-03-27T01:53:22.045Z,5.56
2019-03-27T01:54:21.999Z,5.57
2019-03-27T01:55:21.967Z,5.57
2019-03-27T01:56:21.923Z,5.57
2019-03-27T01:57:21.898Z,5.63
2019-03-27T01:58:21.869Z,5.39
2019-03-27T01:59:21.835Z,5.58
2019-03-27T02:00:21.770Z,5.53
2019-03-27T02:01:21.728Z,5.57
2019-03-27T02:02:21.696Z,5.58
2019-03-27T02:03:21.664Z,5.58
2019-03-27T02:04:21.614Z,5.60
2019-03-27T02:05:21.567Z,5.54
2019-03-27T02:06:21.526Z,5.53
2019-03-27T02:07:21.516Z,5.45
2019-03-27T02:08:21.449Z,5.56
2019-03-27T02:09:21.423Z,5.56
2019-03-27T02:10:21.388Z,5.58
2019-03-27T02:11:21.355Z,5.56
2019-03-27T02:12:21.296Z,5.57
2019-03-27T02:13:21.261Z,5.57
2019-03-27T02:16:06.306Z,5.53
2019-03-27T02:16:54.407Z,5.54
2019-03-27T02:18:47.392Z,5.54
2019-03-27T02:19:47.857Z,5.45
2019-03-27T02:21:41.424Z,5.51
2019-03-27T02:22:39.780Z,5.46
2019-03-27T02:24:32.824Z,5.45
2019-03-27T02:25:33.583Z,5.48
2019-03-27T02:27:26.753Z,5.46
2019-03-27T02:28:25.491Z,5.48
2019-03-27T02:30:21.314Z,5.57
2019-03-27T02:31:20.108Z,5.60
2019-03-27T02:33:13.240Z,5.53
2019-03-27T02:34:13.665Z,5.58
2019-03-27T02:36:06.162Z,5.56
2019-03-27T02:37:06.950Z,5.56
2019-03-27T02:38:59.588Z,5.43
2019-03-27T02:39:58.792Z,5.39
2019-03-27T02:41:52.823Z,5.51
2019-03-27T02:42:52.477Z,5.46
2019-03-27T02:44:45.478Z,5.40
2019-03-27T02:45:44.957Z,5.56
2019-03-27T02:47:39.599Z,5.46
2019-03-27T02:48:38.434Z,5.51
2019-03-27T02:50:44.537Z,5.48
2019-03-27T02:51:42.881Z,5.48
2019-03-27T02:53:36.945Z,5.46
2019-03-27T02:54:36.616Z,5.46
2019-03-27T02:56:29.885Z,5.45
2019-03-27T02:57:28.850Z,5.48
2019-03-27T02:59:23.100Z,5.40
2019-03-27T03:00:23.021Z,5.40
2019-03-27T03:02:16.564Z,5.43
2019-03-27T03:03:17.025Z,5.48
2019-03-27T03:05:10.835Z,5.51
2019-03-27T03:06:09.144Z,5.56
2019-03-27T03:08:02.970Z,5.58
2019-03-27T03:09:02.175Z,5.48
2019-03-27T03:10:56.184Z,5.49
2019-03-27T03:11:56.141Z,5.54
2019-03-27T03:13:49.255Z,5.43
2019-03-27T03:14:49.695Z,5.48
2019-03-27T03:16:43.319Z,5.58
2019-03-27T03:17:41.837Z,5.49
2019-03-27T03:19:35.448Z,5.58
2019-03-27T03:20:34.157Z,5.51
2019-03-27T03:22:29.900Z,5.60
2019-03-27T03:23:29.324Z,5.51
2019-03-27T03:25:23.154Z,5.54
2019-03-27T03:26:21.530Z,5.58
2019-03-27T03:28:15.812Z,5.53
2019-03-27T03:29:14.557Z,5.56
2019-03-27T03:31:09.076Z,5.60
2019-03-27T03:32:07.454Z,5.56
2019-03-27T03:34:01.725Z,5.63
2019-03-27T03:35:00.970Z,5.53
2019-03-27T03:36:55.165Z,5.58
2019-03-27T03:37:53.172Z,5.61
2019-03-27T03:39:47.129Z,5.64
2019-03-27T03:40:47.909Z,5.63
2019-03-27T03:42:42.130Z,5.63
2019-03-27T03:43:41.555Z,5.67
2019-03-27T03:45:34.606Z,5.68
2019-03-27T03:46:33.793Z,5.76
2019-03-27T03:48:27.009Z,5.74
2019-03-27T03:49:26.786Z,5.76
2019-03-27T03:51:20.500Z,5.74
2019-03-27T03:52:20.420Z,5.78
2019-03-27T03:54:13.487Z,5.68
2019-03-27T03:55:12.635Z,5.81
2019-03-27T03:57:05.867Z,5.79
2019-03-27T03:58:07.096Z,5.78
2019-03-27T04:00:01.413Z,5.75
2019-03-27T04:01:01.326Z,5.74
2019-03-27T04:02:53.800Z,5.68
2019-03-27T04:03:53.009Z,5.71
2019-03-27T04:05:47.467Z,5.68
2019-03-27T04:06:45.865Z,5.58
2019-03-27T04:08:41.254Z,5.63
2019-03-27T04:09:40.456Z,5.54
2019-03-27T04:11:34.171Z,5.63
2019-03-27T04:12:33.566Z,5.58
2019-03-27T04:14:27.681Z,5.74
2019-03-27T04:15:27.130Z,5.72
2019-03-27T04:17:19.608Z,5.65
2019-03-27T04:18:20.051Z,5.71
2019-03-27T04:20:13.849Z,5.58
2019-03-27T04:21:14.125Z,5.60
2019-03-27T04:23:05.986Z,5.64
2019-03-27T04:24:05.274Z,5.60
2019-03-27T04:26:09.681Z,5.68
2019-03-27T04:26:58.924Z,5.61
2019-03-27T04:28:52.449Z,5.60
2019-03-27T04:29:51.873Z,5.61
2019-03-27T04:31:44.727Z,5.57
2019-03-27T04:32:44.861Z,5.56
2019-03-27T04:34:39.566Z,5.60
2019-03-27T04:35:39.624Z,5.56
2019-03-27T04:37:32.335Z,5.53
2019-03-27T04:38:32.791Z,5.61
2019-03-27T04:40:26.710Z,5.53
2019-03-27T04:41:25.546Z,5.60
2019-03-27T04:42:25.193Z,5.56
2019-03-27T04:43:24.980Z,5.58
2019-03-27T04:44:24.249Z,5.63
2019-03-27T04:45:24.261Z,5.56
2019-03-27T04:46:25.565Z,5.61
2019-03-27T04:47:31.899Z,5.58
2019-03-27T04:48:24.417Z,5.63
2019-03-27T04:49:23.943Z,5.64
2019-03-27T04:50:23.880Z,5.60
2019-03-27T04:51:23.873Z,5.68
2019-03-27T04:52:23.807Z,5.63
2019-03-27T04:53:23.763Z,5.60
2019-03-27T04:54:26.840Z,5.57
2019-03-27T04:55:23.674Z,5.57
2019-03-27T04:56:23.635Z,5.56
2019-03-27T04:57:23.618Z,5.63
2019-03-27T04:58:23.562Z,5.60
2019-03-27T04:59:23.523Z,5.56
2019-03-27T05:00:23.476Z,5.57
2019-03-27T05:01:23.452Z,5.53
2019-03-27T05:02:23.468Z,5.61
2019-03-27T05:03:23.427Z,5.58
2019-03-27T05:04:23.312Z,5.56
2019-03-27T05:05:23.274Z,5.57
2019-03-27T05:06:23.266Z,5.53
2019-03-27T05:07:23.356Z,5.56
2019-03-27T05:08:23.167Z,5.58
2019-03-27T05:09:23.123Z,5.53
2019-03-27T05:10:23.085Z,5.46
2019-03-27T05:11:23.087Z,5.46
2019-03-27T05:12:23.019Z,5.46
2019-03-27T05:13:22.960Z,5.45
2019-03-27T05:14:22.923Z,5.46
2019-03-27T05:15:22.952Z,5.36
2019-03-27T05:16:22.835Z,5.46
2019-03-27T05:17:22.827Z,5.42
2019-03-27T05:18:22.766Z,5.38
2019-03-27T05:19:22.711Z,5.46
2019-03-27T05:20:22.697Z,5.36
2019-03-27T05:21:22.623Z,5.48
2019-03-27T05:22:22.611Z,5.49
2019-03-27T05:23:22.578Z,5.38
2019-03-27T05:24:22.559Z,5.48
2019-03-27T05:25:22.503Z,5.49
2019-03-27T05:26:22.432Z,5.48
2019-03-27T05:27:22.469Z,5.43
2019-03-27T05:28:22.353Z,5.48
2019-03-27T05:29:22.338Z,5.56
2019-03-27T05:30:22.293Z,5.56
2019-03-27T05:31:22.295Z,5.57
2019-03-27T05:32:22.187Z,5.58
2019-03-27T05:33:22.200Z,5.60
2019-03-27T05:34:22.117Z,5.56
2019-03-27T05:35:22.079Z,5.57
2019-03-27T05:36:22.059Z,5.58
2019-03-27T05:37:21.992Z,5.56
2019-03-27T05:38:21.980Z,5.53
2019-03-27T05:39:21.917Z,5.53
2019-03-27T05:40:21.899Z,5.48
2019-03-27T05:41:21.866Z,5.54
2019-03-27T05:42:21.804Z,5.58
2019-03-27T05:43:21.757Z,5.40
2019-03-27T05:44:21.816Z,5.48
2019-03-27T05:45:21.660Z,5.40
2019-03-27T05:46:21.639Z,5.49
2019-03-27T05:47:21.617Z,5.45
2019-03-27T05:48:21.558Z,5.48
2019-03-27T05:49:21.541Z,5.46
2019-03-27T05:50:21.478Z,5.48
2019-03-27T05:51:21.446Z,5.51
2019-03-27T05:52:21.410Z,5.54
2019-03-27T05:53:21.380Z,5.51
2019-03-27T05:54:21.332Z,5.49
2019-03-27T05:55:21.288Z,5.22
2019-03-27T05:56:21.233Z,5.25
2019-03-27T05:57:21.215Z,5.39
2019-03-27T05:58:21.163Z,5.15
2019-03-27T05:59:21.110Z,5.04
2019-03-27T06:00:21.063Z,5.20
2019-03-27T06:01:21.027Z,5.36
2019-03-27T06:02:21.020Z,5.38
2019-03-27T06:03:20.957Z,5.49
2019-03-27T06:04:20.929Z,5.63
2019-03-27T06:05:20.907Z,5.72
2019-03-27T06:06:20.837Z,5.86
2019-03-27T06:07:20.803Z,5.67
2019-03-27T06:08:20.780Z,5.99
2019-03-27T06:09:20.704Z,6.11
2019-03-27T06:10:20.681Z,6.30
2019-03-27T06:11:20.629Z,6.25
2019-03-27T06:12:20.610Z,6.34
2019-03-27T06:13:20.588Z,6.41
2019-03-27T06:14:20.512Z,6.43
2019-03-27T06:15:20.490Z,6.58
2019-03-27T06:16:20.439Z,6.74
2019-03-27T06:17:20.408Z,6.89
2019-03-27T06:18:20.398Z,6.91
2019-03-27T06:19:20.314Z,7.03
2019-03-27T06:20:20.268Z,7.12
2019-03-27T06:21:20.233Z,7.34
2019-03-27T06:22:20.213Z,7.50
2019-03-27T06:23:20.175Z,7.42
2019-03-27T06:24:20.107Z,7.45
2019-03-27T06:25:20.066Z,7.57
2019-03-27T06:26:20.057Z,7.55
2019-03-27T06:27:19.998Z,7.63
2019-03-27T06:28:19.964Z,7.75
2019-03-27T06:29:19.932Z,7.71
2019-03-27T06:30:19.905Z,7.46
2019-03-27T06:31:19.897Z,7.67
2019-03-27T06:32:19.803Z,7.60
2019-03-27T06:33:19.763Z,7.53
2019-03-27T06:34:19.718Z,7.61
2019-03-27T06:35:20.261Z,7.61
2019-03-27T06:36:19.658Z,7.48
2019-03-27T06:37:19.669Z,7.46
2019-03-27T06:38:19.572Z,7.45
2019-03-27T06:39:19.554Z,7.64
2019-03-27T06:40:19.504Z,7.77
2019-03-27T06:41:19.463Z,7.87
2019-03-27T06:42:19.464Z,8.22
2019-03-27T06:43:19.418Z,8.58
2019-03-27T06:44:19.382Z,8.86
2019-03-27T06:45:19.333Z,8.63
2019-03-27T06:46:19.321Z,8.70
2019-03-27T06:47:19.242Z,8.84
2019-03-27T06:48:26.078Z,9.15
2019-03-27T06:49:19.161Z,9.50
2019-03-27T06:50:19.128Z,9.61
2019-03-27T06:51:19.112Z,9.74
2019-03-27T06:52:19.060Z,9.60
2019-03-27T06:53:19.023Z,9.50
2019-03-27T06:54:19.001Z,9.36
2019-03-27T06:55:19.061Z,8.92
2019-03-27T06:56:18.924Z,8.50
2019-03-27T06:57:18.879Z,8.16
2019-03-27T06:58:18.870Z,7.98
2019-03-27T06:59:18.832Z,8.01
2019-03-27T07:00:18.808Z,8.00
2019-03-27T07:01:18.780Z,8.08
2019-03-27T07:02:18.732Z,8.22
2019-03-27T07:03:18.678Z,8.00
2019-03-27T07:04:18.637Z,8.01
2019-03-27T07:05:18.599Z,8.01
2019-03-27T07:06:18.563Z,8.12
2019-03-27T07:07:18.525Z,8.15
2019-03-27T07:08:18.516Z,8.08
2019-03-27T07:09:18.456Z,8.28
2019-03-27T07:10:18.418Z,8.23
2019-03-27T07:11:18.412Z,8.28
2019-03-27T07:12:21.390Z,8.34
2019-03-27T07:13:18.342Z,8.22
2019-03-27T07:14:18.282Z,8.34
2019-03-27T07:15:18.271Z,8.38
2019-03-27T07:16:18.224Z,8.41
2019-03-27T07:17:18.175Z,8.33
2019-03-27T07:18:18.185Z,8.63
2019-03-27T07:19:18.154Z,8.68
2019-03-27T07:20:18.080Z,8.61
2019-03-27T07:21:18.045Z,8.96
2019-03-27T07:22:17.992Z,9.05
2019-03-27T07:23:17.952Z,9.08
2019-03-27T07:24:17.938Z,9.04
2019-03-27T07:25:17.932Z,8.80
2019-03-27T07:26:17.882Z,8.89
2019-03-27T07:27:17.839Z,8.95
2019-03-27T07:28:17.802Z,8.80
2019-03-27T07:29:19.222Z,8.84
2019-03-27T07:30:17.708Z,8.79
2019-03-27T07:31:17.670Z,8.74
2019-03-27T07:32:17.695Z,8.76
2019-03-27T07:33:17.632Z,8.48
2019-03-27T07:34:17.574Z,8.61
2019-03-27T07:35:17.535Z,8.36
2019-03-27T07:36:17.486Z,8.48
2019-03-27T07:37:17.499Z,8.66
2019-03-27T07:38:17.439Z,8.62
2019-03-27T07:39:17.384Z,8.61
2019-03-27T07:40:17.390Z,8.47
2019-03-27T07:41:17.311Z,8.58
2019-03-27T07:42:17.266Z,8.62
2019-03-27T07:43:17.260Z,8.86
2019-03-27T07:44:17.243Z,8.87
2019-03-27T07:45:17.220Z,8.95
2019-03-27T07:46:17.147Z,8.86
2019-03-27T07:47:17.117Z,8.91
2019-03-27T07:48:17.059Z,9.08
2019-03-27T07:49:17.050Z,9.38
2019-03-27T07:50:16.992Z,9.21
2019-03-27T07:51:16.956Z,9.47
2019-03-27T07:52:16.971Z,9.75
2019-03-27T07:53:16.875Z,10.11
2019-03-27T07:54:16.861Z,10.26
2019-03-27T07:55:19.497Z,10.44
2019-03-27T07:56:16.776Z,10.40
2019-03-27T07:57:16.736Z,10.07
2019-03-27T07:58:16.719Z,9.83
2019-03-27T07:59:16.670Z,9.86
2019-03-27T08:00:16.646Z,9.78
2019-03-27T08:01:16.597Z,9.81
2019-03-27T08:02:16.613Z,9.79
2019-03-27T08:03:16.579Z,9.83
2019-03-27T08:04:16.550Z,9.53
2019-03-27T08:05:16.479Z,9.66
2019-03-27T08:06:16.428Z,9.51
2019-03-27T08:07:26.135Z,9.35
2019-03-27T08:08:16.352Z,9.29
2019-03-27T08:09:16.341Z,9.24
2019-03-27T08:10:16.278Z,9.15
2019-03-27T08:11:16.286Z,9.21
2019-03-27T08:12:16.208Z,9.38
2019-03-27T08:13:16.195Z,9.39
2019-03-27T08:14:16.145Z,9.47
2019-03-27T08:15:16.112Z,9.39
2019-03-27T08:16:16.102Z,9.74
2019-03-27T08:17:16.036Z,9.97
2019-03-27T08:18:16.036Z,10.26
2019-03-27T08:19:15.986Z,10.45
2019-03-27T08:20:15.946Z,10.22
2019-03-27T08:21:15.955Z,10.02
2019-03-27T08:22:15.866Z,9.94
2019-03-27T08:23:15.859Z,10.02
2019-03-27T08:24:15.825Z,10.34
2019-03-27T08:25:15.762Z,10.30
2019-03-27T08:26:15.741Z,10.41
2019-03-27T08:27:15.704Z,10.63
2019-03-27T08:28:15.679Z,10.64
2019-03-27T08:29:15.646Z,10.78
2019-03-27T08:30:15.599Z,10.79
2019-03-27T08:31:15.569Z,10.33
2019-03-27T08:32:15.535Z,10.29
2019-03-27T08:33:15.494Z,10.27
2019-03-27T08:34:15.444Z,10.38
2019-03-27T08:35:15.451Z,10.30
2019-03-27T08:36:15.381Z,10.48
2019-03-27T08:37:15.339Z,10.52
2019-03-27T08:38:15.356Z,10.60
2019-03-27T08:39:15.313Z,10.55
2019-03-27T08:40:15.275Z,10.61
2019-03-27T08:41:15.224Z,10.66
2019-03-27T08:42:15.201Z,10.61
2019-03-27T08:43:21.144Z,9.86
2019-03-27T08:44:15.125Z,9.96
2019-03-27T08:45:15.101Z,10.04
2019-03-27T08:46:15.063Z,9.96
2019-03-27T08:47:14.991Z,9.71
2019-03-27T08:48:15.020Z,10.08
2019-03-27T08:49:21.790Z,10.53
2019-03-27T08:50:14.897Z,10.60
2019-03-27T08:51:14.868Z,10.85
2019-03-27T08:52:14.856Z,10.89
2019-03-27T08:53:14.828Z,10.88
2019-03-27T08:54:14.784Z,10.56
2019-03-27T08:55:14.747Z,10.20
2019-03-27T08:56:14.767Z,10.41
2019-03-27T08:57:14.668Z,10.53
2019-03-27T08:58:14.652Z,10.78
2019-03-27T08:59:14.634Z,10.94
2019-03-27T09:00:14.570Z,11.04
2019-03-27T09:01:14.544Z,11.27
2019-03-27T09:02:14.511Z,11.54
2019-03-27T09:03:14.472Z,11.69
2019-03-27T09:04:14.446Z,12.01
2019-03-27T09:05:14.403Z,12.20
2019-03-27T09:06:14.405Z,11.90
2019-03-27T09:07:14.357Z,11.88
2019-03-27T09:08:14.290Z,12.13
2019-03-27T09:09:14.291Z,12.05
2019-03-27T09:10:14.228Z,11.76
2019-03-27T09:11:14.189Z,11.52
2019-03-27T09:12:14.189Z,11.19
2019-03-27T09:13:14.159Z,11.18
2019-03-27T09:14:14.105Z,11.22
2019-03-27T09:15:14.069Z,11.15
2019-03-27T09:16:14.041Z,10.92
2019-03-27T09:17:14.011Z,10.86
2019-03-27T09:18:16.798Z,11.11
2019-03-27T09:19:13.953Z,11.10
2019-03-27T09:20:13.927Z,11.10
2019-03-27T09:21:13.858Z,10.96
2019-03-27T09:22:13.875Z,11.10
2019-03-27T09:23:13.789Z,11.17
2019-03-27T09:24:13.763Z,11.25
2019-03-27T09:25:13.755Z,11.52
2019-03-27T09:26:13.708Z,11.51
2019-03-27T09:27:13.732Z,11.79
2019-03-27T09:28:13.661Z,11.70
2019-03-27T09:29:13.635Z,11.55
2019-03-27T09:30:13.588Z,11.85
2019-03-27T09:31:13.550Z,11.65
2019-03-27T09:32:13.531Z,11.69
2019-03-27T09:33:13.489Z,11.62
2019-03-27T09:34:13.448Z,11.65
2019-03-27T09:35:13.444Z,11.39
2019-03-27T09:36:13.403Z,10.97
2019-03-27T09:37:13.370Z,11.06
2019-03-27T09:38:13.321Z,11.22
2019-03-27T09:39:13.289Z,11.47
2019-03-27T09:40:13.269Z,11.49
2019-03-27T09:41:13.251Z,11.33
2019-03-27T09:42:13.220Z,11.33
2019-03-27T09:43:13.197Z,11.42
2019-03-27T09:44:13.123Z,11.18
2019-03-27T09:45:13.109Z,10.79
2019-03-27T09:46:13.076Z,10.89
2019-03-27T09:47:13.079Z,11.14
2019-03-27T09:48:12.999Z,11.21
2019-03-27T09:49:12.965Z,11.21
2019-03-27T09:50:12.927Z,11.29
2019-03-27T09:51:12.924Z,11.36
2019-03-27T09:52:12.867Z,11.33
2019-03-27T09:53:12.831Z,11.19
2019-03-27T09:54:12.818Z,11.21
2019-03-27T09:55:12.797Z,11.24
2019-03-27T09:56:18.970Z,11.15
2019-03-27T09:57:12.719Z,11.22
2019-03-27T09:58:12.668Z,10.71
2019-03-27T09:59:12.658Z,10.45
2019-03-27T10:00:12.618Z,10.59
2019-03-27T10:01:12.578Z,10.68
2019-03-27T10:02:12.550Z,10.61
2019-03-27T10:03:12.517Z,10.51
2019-03-27T10:04:12.491Z,10.41
2019-03-27T10:05:12.463Z,10.45
2019-03-27T10:06:12.404Z,10.38
2019-03-27T10:07:12.385Z,10.25
2019-03-27T10:08:12.341Z,10.30
2019-03-27T10:09:12.300Z,10.45
2019-03-27T10:10:12.297Z,10.51
2019-03-27T10:11:12.240Z,10.53
2019-03-27T10:12:12.214Z,10.26
2019-03-27T10:13:12.181Z,9.86
2019-03-27T10:14:12.152Z,9.87
2019-03-27T10:15:12.112Z,10.04
2019-03-27T10:16:12.070Z,10.05
2019-03-27T10:17:12.060Z,10.17
2019-03-27T10:18:11.997Z,10.07
2019-03-27T10:19:12.021Z,10.30
2019-03-27T10:20:13.720Z,10.34
2019-03-27T10:21:11.947Z,10.45
2019-03-27T10:22:11.887Z,10.44
2019-03-27T10:23:11.881Z,10.45
2019-03-27T10:24:11.828Z,10.63
2019-03-27T10:25:11.800Z,10.55
2019-03-27T10:26:11.755Z,10.74
2019-03-27T10:27:11.713Z,10.64
2019-03-27T10:28:11.659Z,10.73
2019-03-27T10:29:11.672Z,10.71
2019-03-27T10:30:11.592Z,10.78
2019-03-27T10:31:11.582Z,10.66
2019-03-27T10:32:11.540Z,10.71
2019-03-27T10:33:11.507Z,10.52
2019-03-27T10:34:11.463Z,10.48
2019-03-27T10:35:11.440Z,10.42
2019-03-27T10:36:11.422Z,10.61
2019-03-27T10:37:11.363Z,10.70
2019-03-27T10:38:11.309Z,10.67
2019-03-27T10:39:11.290Z,10.63
2019-03-27T10:40:11.256Z,10.56
2019-03-27T10:41:11.213Z,10.59
2019-03-27T10:42:11.183Z,10.67
2019-03-27T10:43:11.167Z,10.61
2019-03-27T10:44:11.093Z,10.59
2019-03-27T10:45:11.071Z,10.63
2019-03-27T10:46:11.026Z,10.52
2019-03-27T10:47:11.016Z,10.52
2019-03-27T10:48:10.992Z,10.36
2019-03-27T10:49:10.999Z,10.32
2019-03-27T10:50:17.428Z,10.52
2019-03-27T10:51:10.866Z,10.45
2019-03-27T10:52:10.826Z,10.45
2019-03-27T10:53:10.795Z,10.45
2019-03-27T10:54:10.795Z,10.44
2019-03-27T10:55:10.725Z,10.59
2019-03-27T10:56:10.686Z,10.84
2019-03-27T10:57:10.666Z,10.89
2019-03-27T10:58:10.607Z,10.91
2019-03-27T10:59:10.592Z,10.94
2019-03-27T11:00:10.573Z,11.06
2019-03-27T11:01:10.529Z,11.03
2019-03-27T11:02:10.467Z,11.10
2019-03-27T11:03:10.449Z,11.00
2019-03-27T11:04:10.401Z,10.88
2019-03-27T11:05:10.393Z,10.96
2019-03-27T11:06:10.478Z,11.07
2019-03-27T11:07:10.367Z,11.14
2019-03-27T11:08:11.585Z,11.42
2019-03-27T11:09:10.223Z,11.36
2019-03-27T11:10:10.181Z,11.37
2019-03-27T11:11:10.167Z,11.42
2019-03-27T11:12:10.124Z,11.24
2019-03-27T11:13:10.152Z,10.96
2019-03-27T11:14:10.085Z,10.89
2019-03-27T11:15:10.011Z,10.92
2019-03-27T11:16:10.013Z,10.88
2019-03-27T11:17:09.974Z,10.67
2019-03-27T11:18:09.917Z,10.81
2019-03-27T11:19:09.881Z,10.91
2019-03-27T11:20:09.837Z,10.70
2019-03-27T11:21:09.831Z,10.56
2019-03-27T11:22:09.779Z,10.73
2019-03-27T11:23:09.757Z,10.91
2019-03-27T11:24:09.696Z,10.99
2019-03-27T11:25:09.683Z,10.88
2019-03-27T11:26:09.666Z,10.91
2019-03-27T11:27:09.613Z,11.00
2019-03-27T11:28:10.205Z,10.94
2019-03-27T11:29:09.519Z,10.89
2019-03-27T11:30:09.532Z,10.70
2019-03-27T11:31:09.504Z,10.55
2019-03-27T11:32:09.435Z,10.52
2019-03-27T11:33:09.393Z,10.59
2019-03-27T11:34:09.351Z,10.52
2019-03-27T11:35:09.320Z,10.51
2019-03-27T11:36:09.307Z,10.52
2019-03-27T11:37:09.263Z,10.61
2019-03-27T11:38:09.225Z,10.67
2019-03-27T11:39:09.182Z,10.73
2019-03-27T11:40:09.166Z,10.88
2019-03-27T11:41:12.117Z,11.06
2019-03-27T11:42:09.077Z,11.27
2019-03-27T11:43:09.042Z,11.28
2019-03-27T11:44:09.023Z,11.72
2019-03-27T11:45:08.971Z,11.70
2019-03-27T11:46:08.932Z,11.72
2019-03-27T11:47:08.915Z,11.72
2019-03-27T11:48:08.962Z,11.57
2019-03-27T11:49:08.825Z,11.58
2019-03-27T11:50:08.823Z,11.90
2019-03-27T11:51:08.757Z,12.01
2019-03-27T11:52:08.735Z,12.05
2019-03-27T11:53:08.705Z,12.13
2019-03-27T11:54:08.656Z,11.83
2019-03-27T11:55:08.630Z,11.72
2019-03-27T11:56:08.623Z,11.75
2019-03-27T11:57:08.567Z,11.55
2019-03-27T11:58:08.523Z,11.49
2019-03-27T11:59:08.596Z,11.51
2019-03-27T12:00:08.494Z,11.39
2019-03-27T12:01:08.438Z,11.52
2019-03-27T12:02:08.423Z,11.64
2019-03-27T12:03:08.385Z,11.65
2019-03-27T12:04:08.323Z,11.78
2019-03-27T12:05:08.298Z,11.39
2019-03-27T12:06:08.264Z,11.35
2019-03-27T12:07:08.249Z,11.51
2019-03-27T12:08:08.247Z,11.17
2019-03-27T12:09:08.143Z,11.18
2019-03-27T12:10:08.114Z,11.19
2019-03-27T12:11:08.082Z,11.11
2019-03-27T12:12:08.052Z,10.84
2019-03-27T12:13:08.048Z,10.82
2019-03-27T12:14:07.979Z,10.73
2019-03-27T12:15:07.971Z,10.79
2019-03-27T12:16:07.926Z,10.66
2019-03-27T12:17:07.896Z,10.59
2019-03-27T12:18:07.853Z,10.55
2019-03-27T12:19:07.809Z,10.55
2019-03-27T12:20:07.786Z,10.60
2019-03-27T12:21:07.924Z,10.67
2019-03-27T12:22:07.690Z,10.76
2019-03-27T12:23:07.687Z,10.79
2019-03-27T12:24:07.663Z,10.91
2019-03-27T12:25:07.633Z,10.84
2019-03-27T12:26:09.409Z,10.91
2019-03-27T12:27:07.541Z,10.78
2019-03-27T12:28:07.492Z,10.78
2019-03-27T12:29:07.536Z,10.61
2019-03-27T12:30:07.436Z,10.59
2019-03-27T12:31:07.405Z,10.59
2019-03-27T12:32:07.549Z,10.47
2019-03-27T12:33:07.354Z,10.42
2019-03-27T12:34:07.320Z,10.32
2019-03-27T12:35:07.245Z,10.30
2019-03-27T12:36:07.291Z,10.22
2019-03-27T12:37:07.296Z,10.38
2019-03-27T12:38:07.129Z,10.34
2019-03-27T12:39:07.228Z,10.30
2019-03-27T12:40:11.744Z,10.23
2019-03-27T12:41:07.041Z,10.27
2019-03-27T12:42:07.034Z,10.36
2019-03-27T12:43:06.972Z,10.29
2019-03-27T12:44:07.013Z,10.36
2019-03-27T12:45:06.910Z,10.26
2019-03-27T12:46:06.903Z,10.25
2019-03-27T12:47:06.817Z,10.32
2019-03-27T12:48:06.795Z,10.26
2019-03-27T12:49:06.755Z,10.41
2019-03-27T12:50:06.727Z,10.32
2019-03-27T12:51:12.747Z,10.38
2019-03-27T12:52:06.637Z,10.48
2019-03-27T12:53:06.665Z,10.36
2019-03-27T12:54:06.639Z,10.33
2019-03-27T12:55:06.540Z,10.23
2019-03-27T12:56:06.513Z,10.32
2019-03-27T12:57:06.547Z,10.36
2019-03-27T12:58:06.438Z,10.42
2019-03-27T12:59:06.407Z,10.48
2019-03-27T13:00:06.359Z,10.52
2019-03-27T13:01:06.336Z,10.56
2019-03-27T13:02:06.306Z,10.76
2019-03-27T13:03:06.289Z,10.89
2019-03-27T13:04:06.250Z,11.07
2019-03-27T13:05:06.190Z,11.09
2019-03-27T13:06:06.136Z,11.29
2019-03-27T13:07:06.118Z,11.25
2019-03-27T13:08:06.189Z,11.40
2019-03-27T13:09:06.069Z,11.43
2019-03-27T13:10:06.036Z,11.24
2019-03-27T13:11:06.015Z,11.29
2019-03-27T13:12:05.988Z,11.37
2019-03-27T13:13:05.936Z,11.39
2019-03-27T13:14:05.898Z,11.33
2019-03-27T13:15:05.843Z,11.39
2019-03-27T13:16:05.797Z,11.49
2019-03-27T13:17:05.787Z,11.57
2019-03-27T13:18:05.825Z,11.60
2019-03-27T13:19:05.714Z,11.52
2019-03-27T13:20:05.668Z,11.58
2019-03-27T13:21:05.617Z,11.67
2019-03-27T13:22:05.588Z,11.46
2019-03-27T13:23:05.562Z,11.40
2019-03-27T13:24:05.533Z,11.52
2019-03-27T13:25:05.493Z,11.62
2019-03-27T13:26:05.451Z,11.49
2019-03-27T13:27:05.414Z,11.44
2019-03-27T13:28:05.407Z,11.36
2019-03-27T13:29:05.366Z,11.33
2019-03-27T13:30:05.312Z,11.36
2019-03-27T13:31:05.287Z,11.42
2019-03-27T13:32:05.255Z,11.25
2019-03-27T13:33:05.219Z,11.44
2019-03-27T13:34:05.170Z,11.73
2019-03-27T13:35:05.231Z,11.58
2019-03-27T13:36:05.105Z,11.54
2019-03-27T13:37:05.069Z,11.54
2019-03-27T13:38:05.024Z,11.67
2019-03-27T13:39:04.994Z,11.90
2019-03-27T13:40:04.958Z,11.83
2019-03-27T13:41:04.918Z,11.65
2019-03-27T13:42:04.894Z,11.90
2019-03-27T13:43:04.889Z,12.05
2019-03-27T13:44:04.833Z,12.31
2019-03-27T13:45:04.808Z,12.13
2019-03-27T13:46:04.773Z,11.99
2019-03-27T13:47:04.915Z,12.04
2019-03-27T13:48:04.743Z,11.75
2019-03-27T13:49:04.766Z,11.76
2019-03-27T13:50:04.642Z,11.91
2019-03-27T13:51:04.614Z,11.88
2019-03-27T13:52:04.549Z,11.54
2019-03-27T13:53:04.512Z,11.47